sensor_id;sensor_type;location;lat;lon;timestamp;pressure;altitude;pressure_sealevel;temperature;humidity
57442;BME280;43284;47.042;15.498;2023-03-17T00:00:23;97826.88;;;-0.97;62.52
57442;BME280;43284;47.042;15.498;2023-03-17T00:02:49;97831.16;;;-1.00;63.94
57442;BME280;43284;47.042;15.498;2023-03-17T00:05:26;97833.69;;;-1.02;63.41
57442;BME280;43284;47.042;15.498;2023-03-17T00:07:57;97829.41;;;-1.01;62.54
57442;BME280;43284;47.042;15.498;2023-03-17T00:10:26;97824.28;;;-1.01;61.50
57442;BME280;43284;47.042;15.498;2023-03-17T00:12:53;97837.09;;;-1.01;61.93
57442;BME280;43284;47.042;15.498;2023-03-17T00:15:25;97832.78;;;-1.06;62.13
57442;BME280;43284;47.042;15.498;2023-03-17T00:17:53;97821.66;;;-1.08;63.12
57442;BME280;43284;47.042;15.498;2023-03-17T00:20:26;97837.03;;;-1.11;62.87
57442;BME280;43284;47.042;15.498;2023-03-17T00:22:53;97830.19;;;-1.10;63.05
57442;BME280;43284;47.042;15.498;2023-03-17T00:25:32;97827.63;;;-1.13;62.55
57442;BME280;43284;47.042;15.498;2023-03-17T00:27:59;97833.56;;;-1.14;63.60
57442;BME280;43284;47.042;15.498;2023-03-17T00:30:27;97837.84;;;-1.16;64.25
57442;BME280;43284;47.042;15.498;2023-03-17T00:32:55;97840.38;;;-1.21;63.11
57442;BME280;43284;47.042;15.498;2023-03-17T00:35:23;97829.28;;;-1.20;62.57
57442;BME280;43284;47.042;15.498;2023-03-17T00:37:51;97822.41;;;-1.24;62.54
57442;BME280;43284;47.042;15.498;2023-03-17T00:40:19;97818.94;;;-1.28;63.83
57442;BME280;43284;47.042;15.498;2023-03-17T00:42:46;97813.78;;;-1.31;62.54
57442;BME280;43284;47.042;15.498;2023-03-17T00:45:12;97804.38;;;-1.30;62.57
57442;BME280;43284;47.042;15.498;2023-03-17T00:47:38;97799.25;;;-1.33;62.72
57442;BME280;43284;47.042;15.498;2023-03-17T00:50:08;97802.63;;;-1.34;61.86
57442;BME280;43284;47.042;15.498;2023-03-17T00:52:35;97802.59;;;-1.36;63.88
57442;BME280;43284;47.042;15.498;2023-03-17T00:55:00;97803.44;;;-1.38;62.98
57442;BME280;43284;47.042;15.498;2023-03-17T00:57:28;97805.13;;;-1.42;62.81
57442;BME280;43284;47.042;15.498;2023-03-17T00:59:54;97789.75;;;-1.40;62.99
57442;BME280;43284;47.042;15.498;2023-03-17T01:02:20;97782.06;;;-1.42;63.83
57442;BME280;43284;47.042;15.498;2023-03-17T01:04:46;97789.72;;;-1.45;63.05
57442;BME280;43284;47.042;15.498;2023-03-17T01:07:11;97776.88;;;-1.48;63.28
57442;BME280;43284;47.042;15.498;2023-03-17T01:09:40;97768.28;;;-1.52;62.86
57442;BME280;43284;47.042;15.498;2023-03-17T01:12:09;97779.41;;;-1.51;62.46
57442;BME280;43284;47.042;15.498;2023-03-17T01:14:37;97767.44;;;-1.52;62.51
57442;BME280;43284;47.042;15.498;2023-03-17T01:17:11;97776.81;;;-1.57;62.14
57442;BME280;43284;47.042;15.498;2023-03-17T01:19:38;97765.63;;;-1.64;62.82
57442;BME280;43284;47.042;15.498;2023-03-17T01:22:04;97765.63;;;-1.64;63.42
57442;BME280;43284;47.042;15.498;2023-03-17T01:24:30;97769.91;;;-1.63;64.94
57442;BME280;43284;47.042;15.498;2023-03-17T01:26:56;97765.63;;;-1.64;63.55
57442;BME280;43284;47.042;15.498;2023-03-17T01:29:22;97758.78;;;-1.63;65.56
57442;BME280;43284;47.042;15.498;2023-03-17T01:31:47;97758.75;;;-1.67;64.48
57442;BME280;43284;47.042;15.498;2023-03-17T01:34:13;97761.31;;;-1.68;65.33
57442;BME280;43284;47.042;15.498;2023-03-17T01:36:38;97763.78;;;-1.76;65.15
57442;BME280;43284;47.042;15.498;2023-03-17T01:39:05;97758.66;;;-1.79;67.17
57442;BME280;43284;47.042;15.498;2023-03-17T01:41:33;97760.34;;;-1.78;66.63
57442;BME280;43284;47.042;15.498;2023-03-17T01:43:59;97757.75;;;-1.79;65.82
57442;BME280;43284;47.042;15.498;2023-03-17T01:46:29;97759.44;;;-1.84;65.22
57442;BME280;43284;47.042;15.498;2023-03-17T01:49:07;97757.72;;;-1.87;65.55
57442;BME280;43284;47.042;15.498;2023-03-17T01:54:20;97756.81;;;-1.92;66.64
57442;BME280;43284;47.042;15.498;2023-03-17T01:56:48;97749.97;;;-1.92;66.09
57442;BME280;43284;47.042;15.498;2023-03-17T01:59:19;97750.00;;;-1.89;66.33
57442;BME280;43284;47.042;15.498;2023-03-17T02:01:49;97750.84;;;-1.90;65.62
57442;BME280;43284;47.042;15.498;2023-03-17T02:04:18;97741.38;;;-1.95;66.53
57442;BME280;43284;47.042;15.498;2023-03-17T02:06:47;97744.00;;;-1.91;68.50
57442;BME280;43284;47.042;15.498;2023-03-17T02:09:14;97740.53;;;-1.96;68.97
57442;BME280;43284;47.042;15.498;2023-03-17T02:11:40;97735.47;;;-1.91;68.75
57442;BME280;43284;47.042;15.498;2023-03-17T02:14:06;97722.63;;;-1.94;67.52
57442;BME280;43284;47.042;15.498;2023-03-17T02:16:33;97716.59;;;-1.99;66.80
57442;BME280;43284;47.042;15.498;2023-03-17T02:18:58;97725.09;;;-2.02;66.80
57442;BME280;43284;47.042;15.498;2023-03-17T02:23:59;97723.22;;;-2.20;67.11
57442;BME280;43284;47.042;15.498;2023-03-17T02:26:27;97724.91;;;-2.22;67.47
57442;BME280;43284;47.042;15.498;2023-03-17T02:28:55;97727.44;;;-2.23;67.72
57442;BME280;43284;47.042;15.498;2023-03-17T02:31:23;97717.19;;;-2.25;67.31
57442;BME280;43284;47.042;15.498;2023-03-17T02:33:49;97727.44;;;-2.25;67.54
57442;BME280;43284;47.042;15.498;2023-03-17T02:36:16;97724.88;;;-2.25;66.80
57442;BME280;43284;47.042;15.498;2023-03-17T02:38:42;97724.91;;;-2.22;67.80
57442;BME280;43284;47.042;15.498;2023-03-17T02:41:08;97731.72;;;-2.21;67.27
57442;BME280;43284;47.042;15.498;2023-03-17T02:43:34;97719.78;;;-2.22;67.16
57442;BME280;43284;47.042;15.498;2023-03-17T02:46:00;97730.84;;;-2.24;68.19
57442;BME280;43284;47.042;15.498;2023-03-17T02:48:26;97736.00;;;-2.21;69.42
57442;BME280;43284;47.042;15.498;2023-03-17T02:50:54;97739.34;;;-2.25;68.31
57442;BME280;43284;47.042;15.498;2023-03-17T02:53:20;97736.00;;;-2.21;68.13
57442;BME280;43284;47.042;15.498;2023-03-17T02:55:45;97734.34;;;-2.18;68.18
57442;BME280;43284;47.042;15.498;2023-03-17T02:58:11;97733.47;;;-2.20;66.88
57442;BME280;43284;47.042;15.498;2023-03-17T03:00:37;97734.25;;;-2.24;66.85
57442;BME280;43284;47.042;15.498;2023-03-17T03:03:03;97722.28;;;-2.30;67.45
57442;BME280;43284;47.042;15.498;2023-03-17T03:05:31;97722.22;;;-2.33;67.39
57442;BME280;43284;47.042;15.498;2023-03-17T03:07:57;97720.47;;;-2.37;67.38
57442;BME280;43284;47.042;15.498;2023-03-17T03:10:23;97724.69;;;-2.40;68.43
57442;BME280;43284;47.042;15.498;2023-03-17T03:12:48;97722.09;;;-2.43;67.82
57442;BME280;43284;47.042;15.498;2023-03-17T03:15:17;97719.56;;;-2.42;69.56
57442;BME280;43284;47.042;15.498;2023-03-17T03:17:43;97720.38;;;-2.43;69.02
57442;BME280;43284;47.042;15.498;2023-03-17T03:20:10;97728.91;;;-2.44;68.60
57442;BME280;43284;47.042;15.498;2023-03-17T03:22:36;97725.47;;;-2.46;67.62
57442;BME280;43284;47.042;15.498;2023-03-17T03:25:04;97724.56;;;-2.51;68.79
57442;BME280;43284;47.042;15.498;2023-03-17T03:27:29;97726.22;;;-2.55;69.69
57442;BME280;43284;47.042;15.498;2023-03-17T03:29:56;97733.88;;;-2.58;68.83
57442;BME280;43284;47.042;15.498;2023-03-17T03:32:22;97738.94;;;-2.61;68.84
57442;BME280;43284;47.042;15.498;2023-03-17T03:34:47;97731.22;;;-2.64;68.46
57442;BME280;43284;47.042;15.498;2023-03-17T03:37:13;97737.22;;;-2.63;70.10
57442;BME280;43284;47.042;15.498;2023-03-17T03:39:40;97737.22;;;-2.60;70.30
57442;BME280;43284;47.042;15.498;2023-03-17T03:42:05;97736.34;;;-2.64;69.00
57442;BME280;43284;47.042;15.498;2023-03-17T03:44:31;97741.41;;;-2.67;70.09
57442;BME280;43284;47.042;15.498;2023-03-17T03:46:57;97736.28;;;-2.68;70.01
57442;BME280;43284;47.042;15.498;2023-03-17T03:49:23;97734.56;;;-2.71;69.73
57442;BME280;43284;47.042;15.498;2023-03-17T03:51:48;97733.72;;;-2.67;70.45
57442;BME280;43284;47.042;15.498;2023-03-17T03:54:14;97732.09;;;-2.63;70.06
57442;BME280;43284;47.042;15.498;2023-03-17T03:56:40;97734.59;;;-2.68;68.74
57442;BME280;43284;47.042;15.498;2023-03-17T03:59:05;97729.38;;;-2.74;68.67
57442;BME280;43284;47.042;15.498;2023-03-17T04:01:31;97715.69;;;-2.79;69.06
57442;BME280;43284;47.042;15.498;2023-03-17T04:03:57;97712.25;;;-2.81;69.61
57442;BME280;43284;47.042;15.498;2023-03-17T04:06:23;97718.22;;;-2.81;69.86
57442;BME280;43284;47.042;15.498;2023-03-17T04:08:48;97719.06;;;-2.82;69.32
57442;BME280;43284;47.042;15.498;2023-03-17T04:11:14;97717.38;;;-2.81;69.66
57442;BME280;43284;47.042;15.498;2023-03-17T04:13:40;97710.56;;;-2.78;70.42
57442;BME280;43284;47.042;15.498;2023-03-17T04:16:06;97712.22;;;-2.83;70.24
57442;BME280;43284;47.042;15.498;2023-03-17T04:18:31;97709.66;;;-2.83;69.88
57442;BME280;43284;47.042;15.498;2023-03-17T04:20:57;97708.78;;;-2.85;70.60
57442;BME280;43284;47.042;15.498;2023-03-17T04:23:23;97707.03;;;-2.87;70.05
57442;BME280;43284;47.042;15.498;2023-03-17T04:25:52;97707.91;;;-2.87;70.62
57442;BME280;43284;47.042;15.498;2023-03-17T04:28:18;97707.03;;;-2.87;70.12
57442;BME280;43284;47.042;15.498;2023-03-17T04:30:44;97702.78;;;-2.88;69.49
57442;BME280;43284;47.042;15.498;2023-03-17T04:33:10;97708.75;;;-2.88;70.60
57442;BME280;43284;47.042;15.498;2023-03-17T04:35:37;97706.16;;;-2.90;70.18
57442;BME280;43284;47.042;15.498;2023-03-17T04:38:02;97703.59;;;-2.90;70.53
57442;BME280;43284;47.042;15.498;2023-03-17T04:40:28;97709.47;;;-2.98;69.59
57442;BME280;43284;47.042;15.498;2023-03-17T04:42:54;97715.44;;;-2.99;71.42
57442;BME280;43284;47.042;15.498;2023-03-17T04:45:19;97717.94;;;-3.01;71.64
57442;BME280;43284;47.042;15.498;2023-03-17T04:47:45;97719.75;;;-2.95;72.29
57442;BME280;43284;47.042;15.498;2023-03-17T04:50:13;97714.47;;;-3.06;70.94
57442;BME280;43284;47.042;15.498;2023-03-17T04:52:39;97711.94;;;-3.06;71.88
57442;BME280;43284;47.042;15.498;2023-03-17T04:55:06;97710.19;;;-3.07;71.51
57442;BME280;43284;47.042;15.498;2023-03-17T04:57:36;97711.94;;;-3.06;71.97
57442;BME280;43284;47.042;15.498;2023-03-17T05:00:05;97716.16;;;-3.06;72.57
57442;BME280;43284;47.042;15.498;2023-03-17T05:02:31;97726.38;;;-3.08;72.25
57442;BME280;43284;47.042;15.498;2023-03-17T05:04:57;97724.66;;;-3.09;71.42
57442;BME280;43284;47.042;15.498;2023-03-17T05:07:23;97728.88;;;-3.11;71.10
57442;BME280;43284;47.042;15.498;2023-03-17T05:09:48;97728.09;;;-3.07;72.11
57442;BME280;43284;47.042;15.498;2023-03-17T05:12:14;97725.47;;;-3.12;71.46
57442;BME280;43284;47.042;15.498;2023-03-17T05:14:40;97729.72;;;-3.11;70.92
57442;BME280;43284;47.042;15.498;2023-03-17T05:17:06;97736.47;;;-3.16;70.06
57442;BME280;43284;47.042;15.498;2023-03-17T05:19:32;97733.91;;;-3.19;70.93
57442;BME280;43284;47.042;15.498;2023-03-17T05:21:58;97739.00;;;-3.19;70.61
57442;BME280;43284;47.042;15.498;2023-03-17T05:24:23;97733.75;;;-3.26;70.62
57442;BME280;43284;47.042;15.498;2023-03-17T05:26:49;97741.44;;;-3.28;70.35
57442;BME280;43284;47.042;15.498;2023-03-17T05:29:15;97741.41;;;-3.29;71.18
57442;BME280;43284;47.042;15.498;2023-03-17T05:31:40;97743.00;;;-3.36;70.38
57442;BME280;43284;47.042;15.498;2023-03-17T05:34:06;97752.41;;;-3.34;70.79
57442;BME280;43284;47.042;15.498;2023-03-17T05:36:32;97750.69;;;-3.35;70.63
57442;BME280;43284;47.042;15.498;2023-03-17T05:38:58;97748.13;;;-3.35;70.93
57442;BME280;43284;47.042;15.498;2023-03-17T05:41:24;97752.44;;;-3.32;71.30
57442;BME280;43284;47.042;15.498;2023-03-17T05:43:50;97759.28;;;-3.29;71.29
57442;BME280;43284;47.042;15.498;2023-03-17T05:46:16;97761.94;;;-3.23;71.15
57442;BME280;43284;47.042;15.498;2023-03-17T05:48:42;97754.22;;;-3.26;70.88
57442;BME280;43284;47.042;15.498;2023-03-17T05:51:08;97763.56;;;-3.30;71.74
57442;BME280;43284;47.042;15.498;2023-03-17T05:53:34;97763.59;;;-3.27;71.52
57442;BME280;43284;47.042;15.498;2023-03-17T05:56:00;97758.50;;;-3.24;71.75
57442;BME280;43284;47.042;15.498;2023-03-17T05:58:26;97760.28;;;-3.20;71.63
57442;BME280;43284;47.042;15.498;2023-03-17T06:00:52;97758.59;;;-3.18;72.06
57442;BME280;43284;47.042;15.498;2023-03-17T06:03:18;97768.09;;;-3.12;72.69
57442;BME280;43284;47.042;15.498;2023-03-17T06:05:43;97771.53;;;-3.10;72.87
57442;BME280;43284;47.042;15.498;2023-03-17T06:08:10;97767.28;;;-3.08;73.17
57442;BME280;43284;47.042;15.498;2023-03-17T06:10:36;97765.69;;;-3.01;73.11
57442;BME280;43284;47.042;15.498;2023-03-17T06:13:01;97769.97;;;-2.99;72.77
57442;BME280;43284;47.042;15.498;2023-03-17T06:15:29;97766.66;;;-2.92;72.85
57442;BME280;43284;47.042;15.498;2023-03-17T06:17:54;97765.94;;;-2.83;73.89
57442;BME280;43284;47.042;15.498;2023-03-17T06:20:20;97762.66;;;-2.74;72.86
57442;BME280;43284;47.042;15.498;2023-03-17T06:22:46;97759.31;;;-2.68;72.07
57442;BME280;43284;47.042;15.498;2023-03-17T06:25:12;97756.09;;;-2.54;71.65
57442;BME280;43284;47.042;15.498;2023-03-17T06:27:38;97752.81;;;-2.43;71.10
57442;BME280;43284;47.042;15.498;2023-03-17T06:30:05;97766.53;;;-2.37;70.50
57442;BME280;43284;47.042;15.498;2023-03-17T06:32:31;97759.81;;;-2.29;69.68
57442;BME280;43284;47.042;15.498;2023-03-17T06:34:58;97767.59;;;-2.19;70.77
57442;BME280;43284;47.042;15.498;2023-03-17T06:37:24;97764.25;;;-2.12;70.35
57442;BME280;43284;47.042;15.498;2023-03-17T06:39:49;97766.91;;;-2.04;69.78
57442;BME280;43284;47.042;15.498;2023-03-17T06:42:15;97754.25;;;-1.89;67.47
57442;BME280;43284;47.042;15.498;2023-03-17T06:44:41;97758.59;;;-1.82;67.38
57442;BME280;43284;47.042;15.498;2023-03-17T06:47:09;97745.91;;;-1.71;66.99
57442;BME280;43284;47.042;15.498;2023-03-17T06:49:35;97751.13;;;-1.60;66.34
57442;BME280;43284;47.042;15.498;2023-03-17T06:52:01;97749.50;;;-1.49;66.01
57442;BME280;43284;47.042;15.498;2023-03-17T06:54:27;97753.00;;;-1.38;65.69
57442;BME280;43284;47.042;15.498;2023-03-17T06:56:53;97743.75;;;-1.22;64.91
57442;BME280;43284;47.042;15.498;2023-03-17T06:59:21;97745.56;;;-1.06;64.12
57442;BME280;43284;47.042;15.498;2023-03-17T07:01:47;97748.25;;;-0.92;64.14
57442;BME280;43284;47.042;15.498;2023-03-17T07:04:14;97745.72;;;-0.79;63.37
57442;BME280;43284;47.042;15.498;2023-03-17T07:06:40;97746.66;;;-0.68;62.90
57442;BME280;43284;47.042;15.498;2023-03-17T07:09:07;97740.72;;;-0.53;62.78
57442;BME280;43284;47.042;15.498;2023-03-17T07:11:34;97738.22;;;-0.39;62.77
57442;BME280;43284;47.042;15.498;2023-03-17T07:14:00;97736.56;;;-0.27;62.75
57442;BME280;43284;47.042;15.498;2023-03-17T07:16:27;97739.19;;;-0.08;61.87
57442;BME280;43284;47.042;15.498;2023-03-17T07:18:53;97735.78;;;0.02;60.97
57442;BME280;43284;47.042;15.498;2023-03-17T07:21:19;97734.13;;;0.21;59.58
57442;BME280;43284;47.042;15.498;2023-03-17T07:23:45;97739.31;;;0.44;59.52
57442;BME280;43284;47.042;15.498;2023-03-17T07:26:11;97739.31;;;0.55;57.97
57442;BME280;43284;47.042;15.498;2023-03-17T07:28:37;97747.88;;;0.78;58.62
57442;BME280;43284;47.042;15.498;2023-03-17T07:31:02;97749.56;;;0.92;58.40
57442;BME280;43284;47.042;15.498;2023-03-17T07:33:32;97744.44;;;0.99;57.55
57442;BME280;43284;47.042;15.498;2023-03-17T07:35:58;97746.13;;;1.14;57.10
57442;BME280;43284;47.042;15.498;2023-03-17T07:38:23;97746.09;;;1.22;56.59
57442;BME280;43284;47.042;15.498;2023-03-17T07:40:49;97741.78;;;1.36;55.75
57442;BME280;43284;47.042;15.498;2023-03-17T07:43:15;97742.63;;;1.49;55.18
57442;BME280;43284;47.042;15.498;2023-03-17T07:45:42;97736.53;;;1.59;55.42
57442;BME280;43284;47.042;15.498;2023-03-17T07:48:08;97743.34;;;1.79;53.89
57442;BME280;43284;47.042;15.498;2023-03-17T07:50:35;97732.09;;;1.95;54.75
57442;BME280;43284;47.042;15.498;2023-03-17T07:53:01;97734.63;;;2.03;53.52
57442;BME280;43284;47.042;15.498;2023-03-17T07:55:28;97730.25;;;2.14;52.58
57442;BME280;43284;47.042;15.498;2023-03-17T07:57:54;97728.50;;;2.22;53.66
57442;BME280;43284;47.042;15.498;2023-03-17T08:00:21;97724.13;;;2.35;52.98
57442;BME280;43284;47.042;15.498;2023-03-17T08:02:48;97729.22;;;2.44;51.48
57442;BME280;43284;47.042;15.498;2023-03-17T08:05:15;97727.50;;;2.45;52.39
57442;BME280;43284;47.042;15.498;2023-03-17T08:07:41;97732.53;;;2.62;53.39
57442;BME280;43284;47.042;15.498;2023-03-17T08:10:08;97727.31;;;2.68;52.59
57442;BME280;43284;47.042;15.498;2023-03-17T08:12:37;97726.38;;;2.75;52.61
57442;BME280;43284;47.042;15.498;2023-03-17T08:15:03;97724.66;;;2.79;51.21
57442;BME280;43284;47.042;15.498;2023-03-17T08:17:30;97720.34;;;2.81;50.90
57442;BME280;43284;47.042;15.498;2023-03-17T08:19:56;97716.88;;;2.82;51.04
57442;BME280;43284;47.042;15.498;2023-03-17T08:22:22;97715.06;;;2.92;51.41
57442;BME280;43284;47.042;15.498;2023-03-17T08:24:48;97715.03;;;2.98;51.06
57442;BME280;43284;47.042;15.498;2023-03-17T08:27:16;97716.66;;;3.06;50.40
57442;BME280;43284;47.042;15.498;2023-03-17T08:29:44;97703.69;;;3.11;50.19
57442;BME280;43284;47.042;15.498;2023-03-17T08:32:10;97702.84;;;3.09;49.95
57442;BME280;43284;47.042;15.498;2023-03-17T08:34:36;97713.03;;;3.21;49.13
57442;BME280;43284;47.042;15.498;2023-03-17T08:37:02;97709.66;;;3.18;48.95
57442;BME280;43284;47.042;15.498;2023-03-17T08:39:28;97711.41;;;3.14;48.54
57442;BME280;43284;47.042;15.498;2023-03-17T08:41:55;97710.47;;;3.21;50.21
57442;BME280;43284;47.042;15.498;2023-03-17T08:44:21;97699.16;;;3.35;51.43
57442;BME280;43284;47.042;15.498;2023-03-17T08:46:47;97705.19;;;3.32;50.97
57442;BME280;43284;47.042;15.498;2023-03-17T08:49:14;97697.41;;;3.35;51.02
57442;BME280;43284;47.042;15.498;2023-03-17T08:51:41;97699.66;;;3.64;52.29
57442;BME280;43284;47.042;15.498;2023-03-17T08:54:09;97704.72;;;3.72;51.11
57442;BME280;43284;47.042;15.498;2023-03-17T08:56:36;97697.72;;;3.80;50.23
57442;BME280;43284;47.042;15.498;2023-03-17T08:59:04;97701.91;;;3.89;49.77
57442;BME280;43284;47.042;15.498;2023-03-17T09:01:30;97693.31;;;3.88;49.95
57442;BME280;43284;47.042;15.498;2023-03-17T09:03:57;97689.56;;;4.09;49.46
57442;BME280;43284;47.042;15.498;2023-03-17T09:06:23;97695.59;;;4.08;49.95
57442;BME280;43284;47.042;15.498;2023-03-17T09:08:49;97692.56;;;4.39;47.91
57442;BME280;43284;47.042;15.498;2023-03-17T09:11:24;97685.50;;;4.50;48.91
57442;BME280;43284;47.042;15.498;2023-03-17T09:13:50;97684.72;;;4.44;47.75
57442;BME280;43284;47.042;15.498;2023-03-17T09:16:16;97688.22;;;4.43;46.22
57442;BME280;43284;47.042;15.498;2023-03-17T09:18:43;97691.78;;;4.34;46.39
57442;BME280;43284;47.042;15.498;2023-03-17T09:21:11;97687.03;;;4.62;46.57
57442;BME280;43284;47.042;15.498;2023-03-17T09:23:37;97692.63;;;4.90;45.32
57442;BME280;43284;47.042;15.498;2023-03-17T09:26:03;97689.66;;;5.10;46.47
57442;BME280;43284;47.042;15.498;2023-03-17T09:28:29;97691.59;;;4.99;43.94
57442;BME280;43284;47.042;15.498;2023-03-17T09:30:59;97690.97;;;5.33;46.84
57442;BME280;43284;47.042;15.498;2023-03-17T09:33:26;97683.25;;;5.30;45.83
57442;BME280;43284;47.042;15.498;2023-03-17T09:35:52;97684.81;;;5.39;44.78
57442;BME280;43284;47.042;15.498;2023-03-17T09:38:18;97685.66;;;5.39;42.91
57442;BME280;43284;47.042;15.498;2023-03-17T09:46:44;97674.00;;;6.04;46.01
57442;BME280;43284;47.042;15.498;2023-03-17T09:49:17;97666.63;;;6.23;42.69
57442;BME280;43284;47.042;15.498;2023-03-17T09:51:46;97663.03;;;6.30;43.28
57442;BME280;43284;47.042;15.498;2023-03-17T09:54:20;97657.75;;;6.33;42.51
57442;BME280;43284;47.042;15.498;2023-03-17T09:56:56;97657.13;;;6.23;41.56
57442;BME280;43284;47.042;15.498;2023-03-17T09:59:31;97647.56;;;6.24;41.04
57442;BME280;43284;47.042;15.498;2023-03-17T10:01:58;97648.75;;;6.48;42.52
57442;BME280;43284;47.042;15.498;2023-03-17T10:04:24;97646.59;;;6.64;42.19
57442;BME280;43284;47.042;15.498;2023-03-17T10:06:51;97641.00;;;6.80;41.98
57442;BME280;43284;47.042;15.498;2023-03-17T10:09:37;97632.22;;;7.17;43.01
57442;BME280;43284;47.042;15.498;2023-03-17T10:12:09;97641.88;;;6.79;40.42
57442;BME280;43284;47.042;15.498;2023-03-17T10:14:50;97632.41;;;6.77;40.75
57442;BME280;43284;47.042;15.498;2023-03-17T10:17:25;97630.31;;;6.91;41.52
57442;BME280;43284;47.042;15.498;2023-03-17T10:22:57;97615.56;;;7.54;37.90
57442;BME280;43284;47.042;15.498;2023-03-17T10:25:31;97616.41;;;7.84;38.79
57442;BME280;43284;47.042;15.498;2023-03-17T10:28:29;97611.78;;;7.64;37.12
57442;BME280;43284;47.042;15.498;2023-03-17T10:31:45;97619.44;;;7.69;38.40
57442;BME280;43284;47.042;15.498;2023-03-17T10:33:50;97618.31;;;7.78;39.41
57442;BME280;43284;47.042;15.498;2023-03-17T10:36:32;97618.50;;;7.72;40.20
57442;BME280;43284;47.042;15.498;2023-03-17T10:39:02;97616.50;;;8.10;38.73
57442;BME280;43284;47.042;15.498;2023-03-17T10:41:34;97623.03;;;7.95;38.76
57442;BME280;43284;47.042;15.498;2023-03-17T10:44:01;97618.16;;;8.12;40.65
57442;BME280;43284;47.042;15.498;2023-03-17T10:46:32;97615.19;;;7.96;39.10
57442;BME280;43284;47.042;15.498;2023-03-17T10:49:11;97613.13;;;8.06;39.19
57442;BME280;43284;47.042;15.498;2023-03-17T10:51:44;97613.31;;;8.28;38.17
57442;BME280;43284;47.042;15.498;2023-03-17T10:54:16;97601.28;;;8.24;38.19
57442;BME280;43284;47.042;15.498;2023-03-17T10:56:42;97606.03;;;8.66;36.49
57442;BME280;43284;47.042;15.498;2023-03-17T11:01:48;97606.28;;;8.58;36.22
57442;BME280;43284;47.042;15.498;2023-03-17T11:06:55;97598.75;;;8.76;35.49
57442;BME280;43284;47.042;15.498;2023-03-17T11:09:21;97595.22;;;9.02;34.32
57442;BME280;43284;47.042;15.498;2023-03-17T11:11:57;97591.59;;;8.56;33.78
57442;BME280;43284;47.042;15.498;2023-03-17T11:14:24;97588.50;;;8.70;36.41
57442;BME280;43284;47.042;15.498;2023-03-17T11:19:45;97578.53;;;8.57;34.48
57442;BME280;43284;47.042;15.498;2023-03-17T11:22:52;97577.28;;;8.42;35.62
57442;BME280;43284;47.042;15.498;2023-03-17T11:25:19;97574.63;;;8.94;34.89
57442;BME280;43284;47.042;15.498;2023-03-17T11:28:07;97564.69;;;8.80;34.74
57442;BME280;43284;47.042;15.498;2023-03-17T11:31:05;97560.94;;;9.36;36.76
57442;BME280;43284;47.042;15.498;2023-03-17T11:39:09;97544.03;;;9.68;33.40
57442;BME280;43284;47.042;15.498;2023-03-17T11:42:03;97543.56;;;9.59;33.00
57442;BME280;43284;47.042;15.498;2023-03-17T11:45:02;97543.75;;;9.98;33.58
57442;BME280;43284;47.042;15.498;2023-03-17T11:50:13;97526.16;;;10.46;32.86
57442;BME280;43284;47.042;15.498;2023-03-17T11:55:55;97515.78;;;10.65;34.22
57442;BME280;43284;47.042;15.498;2023-03-17T12:00:59;97511.72;;;10.58;34.98
57442;BME280;43284;47.042;15.498;2023-03-17T12:03:42;97505.81;;;10.73;35.18
57442;BME280;43284;47.042;15.498;2023-03-17T12:06:28;97503.41;;;10.89;33.82
57442;BME280;43284;47.042;15.498;2023-03-17T12:09:26;97494.00;;;10.85;35.47
57442;BME280;43284;47.042;15.498;2023-03-17T12:11:56;97485.66;;;11.14;34.32
57442;BME280;43284;47.042;15.498;2023-03-17T12:14:32;97482.34;;;11.30;35.10
57442;BME280;43284;47.042;15.498;2023-03-17T12:17:29;97476.97;;;11.14;34.63
57442;BME280;43284;47.042;15.498;2023-03-17T12:20:06;97473.31;;;11.18;34.29
57442;BME280;43284;47.042;15.498;2023-03-17T12:22:52;97468.91;;;11.38;32.71
57442;BME280;43284;47.042;15.498;2023-03-17T12:25:34;97476.16;;;11.50;34.20
57442;BME280;43284;47.042;15.498;2023-03-17T12:28:25;97467.19;;;11.55;33.61
57442;BME280;43284;47.042;15.498;2023-03-17T12:31:24;97454.22;;;11.35;32.66
57442;BME280;43284;47.042;15.498;2023-03-17T12:34:18;97450.78;;;11.52;31.90
57442;BME280;43284;47.042;15.498;2023-03-17T12:36:47;97446.88;;;11.61;33.00
57442;BME280;43284;47.042;15.498;2023-03-17T12:39:32;97441.75;;;11.40;32.84
57442;BME280;43284;47.042;15.498;2023-03-17T12:42:15;97440.47;;;11.85;34.49
57442;BME280;43284;47.042;15.498;2023-03-17T12:55:34;97418.38;;;12.08;32.18
57442;BME280;43284;47.042;15.498;2023-03-17T12:58:04;97415.09;;;12.55;33.23
57442;BME280;43284;47.042;15.498;2023-03-17T13:00:36;97406.47;;;12.36;30.08
57442;BME280;43284;47.042;15.498;2023-03-17T13:03:25;97406.41;;;12.71;30.82
57442;BME280;43284;47.042;15.498;2023-03-17T13:05:58;97396.81;;;12.70;30.19
57442;BME280;43284;47.042;15.498;2023-03-17T13:08:36;97393.69;;;12.63;30.21
57442;BME280;43284;47.042;15.498;2023-03-17T13:16:37;97384.97;;;13.12;30.92
57442;BME280;43284;47.042;15.498;2023-03-17T13:24:51;97377.88;;;13.30;27.57
57442;BME280;43284;47.042;15.498;2023-03-17T13:33:00;97372.25;;;13.52;27.64
57442;BME280;43284;47.042;15.498;2023-03-17T13:35:57;97371.53;;;13.64;28.68
57442;BME280;43284;47.042;15.498;2023-03-17T13:41:49;97359.44;;;13.46;26.23
57442;BME280;43284;47.042;15.498;2023-03-17T13:44:23;97363.97;;;13.12;27.29
57442;BME280;43284;47.042;15.498;2023-03-17T13:47:10;97362.16;;;13.60;28.57
57442;BME280;43284;47.042;15.498;2023-03-17T13:49:45;97359.81;;;13.70;28.03
57442;BME280;43284;47.042;15.498;2023-03-17T13:52:22;97346.81;;;13.52;27.22
57442;BME280;43284;47.042;15.498;2023-03-17T13:55:40;97354.66;;;13.68;27.18
57442;BME280;43284;47.042;15.498;2023-03-17T14:00:25;97347.63;;;13.69;27.77
57442;BME280;43284;47.042;15.498;2023-03-17T14:03:14;97343.44;;;13.95;28.85
57442;BME280;43284;47.042;15.498;2023-03-17T14:05:41;97341.00;;;13.92;28.52
57442;BME280;43284;47.042;15.498;2023-03-17T14:10:53;97337.84;;;14.01;29.12
57442;BME280;43284;47.042;15.498;2023-03-17T14:13:24;97337.94;;;14.14;29.23
57442;BME280;43284;47.042;15.498;2023-03-17T14:15:57;97338.63;;;14.17;27.71